Time;durP1;ratioP1;P1;durP2;ratioP2;P2;SDS_P1;SDS_P2;PMS_P1;PMS_P2;Temp;Humidity;BMP_temperature;BMP_pressure;BME280_temperature;BME280_humidity;BME280_pressure;Samples;Min_cycle;Max_cycle;Signal;HPM_P1;HPM_P2
2022/04/05 00:01:30;;;;;;;7.22;3.17;;;;;;;0.16;41.04;98755.97;4944944;29;20045;-81
2022/04/05 00:03:56;;;;;;;9.25;4.22;;;;;;;0.04;40.79;98737.88;4943585;29;20047;-82
2022/04/05 00:06:22;;;;;;;4.47;3.17;;;;;;;0.10;41.59;98740.53;4933451;29;20050;-82
2022/04/05 00:08:48;;;;;;;5.88;2.80;;;;;;;0.01;41.04;98712.22;4930428;29;20055;-80
2022/04/05 00:11:15;;;;;;;5.55;2.65;;;;;;;0.20;41.57;98737.28;4952301;29;20055;-80
2022/04/05 00:13:41;;;;;;;5.63;2.92;;;;;;;0.02;41.32;98699.44;4933250;29;20056;-82
2022/04/05 00:16:08;;;;;;;6.85;3.17;;;;;;;-0.15;41.45;98671.06;4946799;29;20612;-83
2022/04/05 00:18:34;;;;;;;5.18;3.13;;;;;;;-0.10;41.43;98686.47;4947502;29;20054;-84
2022/04/05 00:21:00;;;;;;;8.23;2.97;;;;;;;0.01;41.15;98691.75;4947307;29;20083;-81
2022/04/05 00:23:26;;;;;;;6.25;2.60;;;;;;;0.25;41.56;98748.44;4934789;29;20101;-81
2022/04/05 00:25:52;;;;;;;6.05;3.03;;;;;;;0.07;41.65;98723.41;4952446;29;20043;-84
2022/04/05 00:28:18;;;;;;;4.55;3.05;;;;;;;-0.42;41.10;98667.22;4955532;29;20046;-83
2022/04/05 00:30:44;;;;;;;4.25;2.55;;;;;;;0.14;41.36;98752.50;4947572;29;20051;-80
2022/04/05 00:33:10;;;;;;;5.40;2.85;;;;;;;-0.23;41.28;98687.97;4953772;29;20050;-80
2022/04/05 00:35:36;;;;;;;6.22;2.88;;;;;;;0.05;41.66;98752.38;4936230;29;20142;-81
2022/04/05 00:38:03;;;;;;;6.85;3.00;;;;;;;-0.43;41.60;98678.25;4940406;29;20101;-81
2022/04/05 00:40:30;;;;;;;5.03;2.80;;;;;;;-0.31;41.36;98700.63;4925846;29;20038;-83
2022/04/05 00:42:57;;;;;;;4.90;2.67;;;;;;;-0.61;41.72;98661.78;4947247;29;20039;-83
2022/04/05 00:45:23;;;;;;;5.75;2.70;;;;;;;-0.51;41.69;98687.47;4943767;29;20142;-82
2022/04/05 00:47:51;;;;;;;4.90;2.75;;;;;;;-0.18;41.79;98738.34;4932093;29;20043;-83
2022/04/05 00:50:22;;;;;;;5.68;2.60;;;;;;;-0.39;41.67;98704.72;4916264;29;20043;-84
2022/04/05 00:52:49;;;;;;;6.07;2.55;;;;;;;-0.02;42.17;98731.81;4923923;29;20038;-84
2022/04/05 00:55:19;;;;;;;6.30;2.47;;;;;;;0.05;41.55;98717.41;4945377;29;20039;-82
2022/04/05 00:57:46;;;;;;;5.15;2.70;;;;;;;0.07;41.56;98697.84;4932849;29;20031;-80
2022/04/05 01:00:14;;;;;;;5.03;2.75;;;;;;;0.24;41.39;98712.56;4954836;29;20093;-79
2022/04/05 01:02:41;;;;;;;6.30;2.88;;;;;;;0.04;41.69;98658.56;4939525;28;20040;-83
2022/04/05 01:05:08;;;;;;;4.07;2.47;;;;;;;0.36;41.57;98691.44;4944094;29;20558;-81
2022/04/05 01:07:38;;;;;;;5.32;2.50;;;;;;;0.21;41.33;98664.78;4966943;29;20047;-83
2022/04/05 01:10:08;;;;;;;4.30;2.38;;;;;;;0.19;41.52;98643.44;4957406;28;20046;-82
2022/04/05 01:12:34;;;;;;;3.20;2.30;;;;;;;0.54;41.11;98694.28;4915443;29;20055;-84
2022/04/05 01:15:00;;;;;;;3.92;2.50;;;;;;;0.38;41.28;98664.16;4930779;29;20050;-81
2022/04/05 01:17:27;;;;;;;3.78;2.50;;;;;;;0.58;40.90;98678.09;4928643;29;20040;-83
2022/04/05 01:19:53;;;;;;;5.53;2.97;;;;;;;0.53;41.01;98664.38;4945495;29;20575;-82
2022/04/05 01:22:19;;;;;;;5.07;2.55;;;;;;;0.44;40.80;98639.50;4939687;28;20121;-84
2022/04/05 01:24:45;;;;;;;5.43;2.70;;;;;;;0.45;41.34;98630.13;4944976;29;20046;-84
2022/04/05 01:27:18;;;;;;;5.38;2.65;;;;;;;0.60;40.98;98649.97;4933676;29;20203;-82
2022/04/05 01:29:46;;;;;;;3.47;2.63;;;;;;;0.52;41.02;98634.50;4934792;29;20464;-82
2022/04/05 01:32:11;;;;;;;8.02;2.35;;;;;;;0.65;41.13;98655.13;4945649;29;20051;-80
2022/04/05 01:34:39;;;;;;;4.55;2.55;;;;;;;1.04;40.80;98706.00;4928237;29;20176;-83
2022/04/05 01:37:07;;;;;;;6.35;2.53;;;;;;;0.83;40.97;98663.03;4946828;29;20039;-81
2022/04/05 01:39:35;;;;;;;3.70;2.35;;;;;;;0.56;41.07;98636.25;4930435;29;20432;-83
2022/04/05 01:42:06;;;;;;;4.10;2.20;;;;;;;0.63;40.94;98639.75;4943043;29;20035;-84
2022/04/05 01:44:35;;;;;;;5.72;2.40;;;;;;;1.01;40.93;98710.22;4931778;29;20039;-85
2022/04/05 01:47:07;;;;;;;7.10;2.20;;;;;;;0.79;40.76;98670.69;4914761;29;20043;-83
2022/04/05 01:49:33;;;;;;;4.13;2.28;;;;;;;0.66;41.04;98649.19;4942835;29;20126;-83
2022/04/05 01:52:00;;;;;;;3.13;1.88;;;;;;;1.03;40.48;98711.09;4943176;29;20055;-84
2022/04/05 01:54:26;;;;;;;2.95;1.95;;;;;;;0.72;40.74;98649.25;4942473;29;20175;-84
2022/04/05 01:56:52;;;;;;;4.05;1.95;;;;;;;1.05;40.79;98701.72;4930445;29;20086;-83
2022/04/05 01:59:21;;;;;;;3.75;2.10;;;;;;;1.09;41.09;98697.53;4946413;29;20035;-82
2022/04/05 02:01:48;;;;;;;4.03;2.20;;;;;;;1.03;40.30;98700.84;4943081;29;20051;-80
2022/04/05 02:04:14;;;;;;;3.83;2.22;;;;;;;0.80;40.17;98655.31;4927146;29;20047;-83
2022/04/05 02:06:42;;;;;;;4.03;2.05;;;;;;;1.12;40.66;98700.97;4929540;29;20039;-82
2022/04/05 02:09:11;;;;;;;5.07;1.80;;;;;;;1.12;40.74;98700.97;4925564;29;20043;-83
2022/04/05 02:11:37;;;;;;;5.60;2.40;;;;;;;0.96;40.41;98658.09;4947178;28;20051;-83
2022/04/05 02:14:30;;;;;;;;;;;;;;;1.15;40.86;98692.44;4939759;29;20142;-82
2022/04/05 02:16:58;;;;;;;4.55;2.38;;;;;;;0.96;40.55;98663.22;4958295;29;19918;-81
2022/04/05 02:19:26;;;;;;;5.82;2.10;;;;;;;1.01;40.79;98685.47;4968218;28;20050;-81
2022/04/05 02:21:53;;;;;;;3.95;2.05;;;;;;;0.80;40.33;98654.47;4922059;29;20047;-82
2022/04/05 02:24:20;;;;;;;4.45;2.50;;;;;;;0.82;40.98;98661.31;4938174;29;20621;-82
2022/04/05 02:26:47;;;;;;;3.80;2.10;;;;;;;0.71;40.94;98652.66;4940864;29;20396;-81
2022/04/05 02:29:16;;;;;;;4.50;2.15;;;;;;;0.80;40.99;98668.13;4948960;29;20039;-83
2022/04/05 02:31:44;;;;;;;4.22;2.33;;;;;;;0.69;40.57;98654.34;4962166;29;20027;-82
2022/04/05 02:34:12;;;;;;;4.32;2.30;;;;;;;0.21;41.14;98587.19;4942798;29;20031;-82
2022/04/05 02:36:42;;;;;;;4.95;2.30;;;;;;;0.29;40.80;98619.72;4947924;28;20534;-82
2022/04/05 02:39:13;;;;;;;7.22;2.38;;;;;;;0.57;40.70;98675.53;4935507;29;20530;-82
2022/04/05 02:41:40;;;;;;;2.80;2.30;;;;;;;0.50;41.89;98668.59;4915276;29;20049;-84
2022/04/05 02:44:07;;;;;;;3.42;2.10;;;;;;;0.29;41.24;98645.28;4935692;29;20518;-83
2022/04/05 02:46:36;;;;;;;3.75;2.28;;;;;;;-0.25;41.74;98565.22;4946523;29;20138;-83
2022/04/05 02:49:03;;;;;;;3.38;2.00;;;;;;;0.21;41.55;98661.38;4935092;29;20051;-84
2022/04/05 02:51:34;;;;;;;4.78;2.00;;;;;;;0.19;41.80;98669.00;4940356;29;20723;-82
2022/04/05 02:54:07;;;;;;;3.85;2.08;;;;;;;-0.05;41.37;98634.56;4936448;29;20551;-83
2022/04/05 02:56:35;;;;;;;2.78;2.10;;;;;;;-0.08;41.89;98641.31;4948148;29;20051;-83
2022/04/05 02:59:02;;;;;;;3.33;2.00;;;;;;;-0.63;42.01;98556.13;4923537;29;20621;-84
2022/04/05 03:01:29;;;;;;;3.70;1.88;;;;;;;-0.42;42.57;98595.63;4941419;29;20057;-81
2022/04/05 03:04:09;;;;;;;3.42;1.83;;;;;;;-0.55;41.91;98581.78;4936348;29;20046;-82
2022/04/05 03:06:38;;;;;;;3.58;2.20;;;;;;;-0.14;42.57;98654.88;4926974;29;20495;-82
2022/04/05 03:09:06;;;;;;;3.53;1.88;;;;;;;-0.63;42.33;98576.56;4938597;29;20039;-82
2022/04/05 03:11:36;;;;;;;5.50;2.17;;;;;;;-0.24;42.78;98643.66;4932783;29;20134;-84
2022/04/05 03:14:06;;;;;;;3.22;2.17;;;;;;;-0.22;42.50;98648.78;4935528;29;20051;-87
2022/04/05 03:16:37;;;;;;;4.05;2.05;;;;;;;-0.09;42.31;98667.75;4919068;29;20051;-82
2022/04/05 03:19:08;;;;;;;3.13;1.80;;;;;;;-0.61;43.16;98577.44;4935194;29;20039;-84
2022/04/05 03:21:43;;;;;;;3.03;2.05;;;;;;;-0.31;42.80;98637.56;4919655;29;20055;-87
2022/04/05 03:24:11;;;;;;;3.10;1.83;;;;;;;-0.42;42.88;98617.75;4941062;29;20046;-82
2022/04/05 03:26:37;;;;;;;3.20;2.17;;;;;;;-0.24;42.93;98660.69;4947107;29;20043;-79
2022/04/05 03:29:04;;;;;;;2.92;2.05;;;;;;;-0.26;43.08;98657.22;4966765;28;20043;-82
2022/04/05 03:31:31;;;;;;;4.28;2.05;;;;;;;-0.49;43.10;98624.47;4931520;29;20105;-84
2022/04/05 03:33:57;;;;;;;5.60;1.95;;;;;;;-0.44;43.46;98640.75;4946036;29;20074;-84
2022/04/05 03:36:26;;;;;;;3.60;2.17;;;;;;;-0.36;43.25;98649.44;4925584;29;20501;-82
2022/04/05 03:38:53;;;;;;;3.75;2.10;;;;;;;-0.10;43.33;98659.19;4919404;29;20043;-82
2022/04/05 03:41:21;;;;;;;4.15;1.95;;;;;;;-0.23;43.31;98613.81;4924746;29;20043;-84
2022/04/05 03:43:49;;;;;;;5.32;2.30;;;;;;;-0.13;43.38;98602.03;4920472;29;20311;-85
2022/04/05 03:46:22;;;;;;;3.92;2.03;;;;;;;0.28;43.25;98653.81;4937315;29;20053;-85
2022/04/05 03:48:50;;;;;;;3.33;2.05;;;;;;;0.07;43.19;98592.09;4933811;29;20040;-86
2022/04/05 03:51:21;;;;;;;4.47;2.15;;;;;;;0.44;42.77;98610.50;4919949;29;20067;-83
2022/04/05 03:53:59;;;;;;;3.70;2.40;;;;;;;0.51;42.98;98586.72;4948330;29;20463;-83
2022/04/05 03:56:29;;;;;;;4.95;2.28;;;;;;;1.12;42.87;98653.97;4942376;29;20406;-82
2022/04/05 03:58:59;;;;;;;4.47;2.25;;;;;;;1.17;42.78;98637.81;4930966;29;20047;-84
2022/04/05 04:01:25;;;;;;;4.90;2.53;;;;;;;1.12;42.31;98618.09;4917515;29;20047;-84
2022/04/05 04:03:52;;;;;;;4.82;2.47;;;;;;;1.35;42.37;98626.88;4946037;29;20035;-83
2022/04/05 04:06:19;;;;;;;4.38;2.75;;;;;;;1.64;42.07;98654.50;4930576;29;20293;-84
2022/04/05 04:08:46;;;;;;;6.32;2.45;;;;;;;1.41;42.08;98590.19;4937156;29;20071;-84
2022/04/05 04:11:14;;;;;;;4.43;2.50;;;;;;;1.85;41.58;98642.69;4931386;29;20396;-82
2022/04/05 04:13:42;;;;;;;3.42;2.50;;;;;;;1.79;41.51;98610.16;4917330;29;20118;-83
2022/04/05 04:16:08;;;;;;;5.80;2.60;;;;;;;2.13;41.17;98624.06;4918017;29;20472;-80
2022/04/05 04:18:37;;;;;;;5.65;2.80;;;;;;;2.43;41.34;98651.63;4946082;29;20042;-82
2022/04/05 04:21:04;;;;;;;5.00;2.75;;;;;;;2.37;40.72;98629.34;4929170;29;20073;-83
2022/04/05 04:23:30;;;;;;;4.45;2.58;;;;;;;2.48;40.95;98654.22;4947602;29;20051;-84
2022/04/05 04:25:57;;;;;;;5.93;2.67;;;;;;;2.37;40.82;98629.34;4942865;29;20070;-81
2022/04/05 04:28:23;;;;;;;4.25;2.33;;;;;;;2.61;40.77;98650.88;4965937;29;20051;-84
2022/04/05 04:30:49;;;;;;;5.55;2.60;;;;;;;2.89;40.71;98648.44;4931247;29;20126;-83
2022/04/05 04:33:15;;;;;;;5.25;2.63;;;;;;;2.81;40.56;98588.44;4955535;29;20069;-84
2022/04/05 04:35:44;;;;;;;4.20;2.47;;;;;;;2.93;40.45;98573.06;4942676;29;20660;-81
2022/04/05 04:38:12;;;;;;;7.25;2.80;;;;;;;3.34;40.06;98633.09;4953937;28;20028;-83
2022/04/05 04:40:38;;;;;;;4.85;2.30;;;;;;;3.31;39.56;98639.13;4948964;29;20770;-83
2022/04/05 04:43:04;;;;;;;4.28;2.60;;;;;;;3.23;40.00;98643.38;4948958;29;20043;-86
2022/04/05 04:45:31;;;;;;;9.05;3.00;;;;;;;3.32;39.92;98632.25;4934838;29;20031;-82
2022/04/05 04:47:57;;;;;;;5.93;2.90;;;;;;;3.53;39.82;98635.72;4930564;29;20051;-82
2022/04/05 04:50:24;;;;;;;5.97;2.88;;;;;;;3.69;39.57;98613.41;4931793;29;20410;-84
2022/04/05 04:52:50;;;;;;;3.72;2.60;;;;;;;4.09;39.48;98607.38;4931820;29;20751;-82
2022/04/05 04:55:16;;;;;;;6.25;2.55;;;;;;;4.45;39.50;98603.88;4945642;29;20051;-84
2022/04/05 04:57:42;;;;;;;10.95;2.72;;;;;;;4.86;38.60;98629.47;4944758;29;20474;-83
2022/04/05 05:00:11;;;;;;;4.63;2.53;;;;;;;5.23;38.41;98609.53;4934818;29;20471;-85
2022/04/05 05:02:44;;;;;;;12.00;2.60;;;;;;;5.54;36.99;98616.19;4945914;29;20481;-82
2022/04/05 05:05:12;;;;;;;4.30;2.50;;;;;;;5.54;37.19;98590.38;4935469;29;20046;-83
2022/04/05 05:07:40;;;;;;;7.25;2.63;;;;;;;5.62;36.91;98605.81;4937889;29;20091;-84
2022/04/05 05:10:08;;;;;;;7.47;3.10;;;;;;;7.17;36.99;98625.69;4937013;29;20039;-84
2022/04/05 05:12:36;;;;;;;4.78;2.72;;;;;;;8.52;35.50;98569.09;4935655;29;20058;-84
2022/04/05 05:15:02;;;;;;;5.53;3.17;;;;;;;9.06;34.09;98599.97;4932280;29;20043;-83
2022/04/05 05:17:29;;;;;;;6.22;2.60;;;;;;;9.69;33.05;98535.34;4932425;29;20070;-83
2022/04/05 05:19:55;;;;;;;5.18;2.80;;;;;;;11.22;31.73;98609.16;4935874;29;20388;-82
2022/04/05 05:22:21;;;;;;;5.28;2.83;;;;;;;10.07;31.31;98526.53;4934748;29;20028;-82
2022/04/05 05:24:47;;;;;;;4.40;2.58;;;;;;;10.48;31.47;98586.09;4951762;29;20048;-82
2022/04/05 05:27:15;;;;;;;3.65;2.70;;;;;;;11.55;30.42;98506.56;4928577;29;20039;-82
2022/04/05 05:29:41;;;;;;;5.68;2.78;;;;;;;13.33;29.30;98608.91;4956055;29;20051;-84
2022/04/05 05:32:07;;;;;;;4.40;2.65;;;;;;;14.82;28.50;98603.56;4948269;29;20456;-84
2022/04/05 05:34:33;;;;;;;5.55;2.90;;;;;;;15.86;27.19;98598.72;4957016;29;20043;-82
2022/04/05 05:36:59;;;;;;;5.18;2.92;;;;;;;14.92;26.15;98559.47;4931581;29;20050;-83
2022/04/05 05:39:26;;;;;;;4.82;2.70;;;;;;;15.63;26.28;98600.66;4936670;29;20048;-83
2022/04/05 05:41:52;;;;;;;9.20;2.55;;;;;;;15.42;25.58;98606.94;4951590;29;21149;-83
2022/04/05 05:44:18;;;;;;;4.13;2.75;;;;;;;14.78;25.52;98540.94;4947415;29;20126;-84
2022/04/05 05:46:44;;;;;;;3.60;2.72;;;;;;;14.28;25.37;98477.72;4941654;29;20083;-84
2022/04/05 05:49:11;;;;;;;3.70;2.55;;;;;;;14.61;25.30;98610.59;4950231;28;20031;-85
2022/04/05 05:51:37;;;;;;;5.32;2.70;;;;;;;13.86;25.60;98598.06;4945633;29;20043;-83
2022/04/05 05:54:07;;;;;;;7.43;2.83;;;;;;;12.93;25.58;98507.66;4933588;29;20555;-82
2022/04/05 05:56:37;;;;;;;5.68;2.80;;;;;;;12.82;25.49;98590.78;4970793;28;20070;-82
2022/04/05 05:59:09;;;;;;;6.15;2.95;;;;;;;11.18;26.64;98549.38;4952098;29;20031;-85
2022/04/05 06:01:35;;;;;;;5.10;3.13;;;;;;;10.46;27.30;98568.84;4968158;29;20146;-84
2022/04/05 06:04:02;;;;;;;5.50;2.80;;;;;;;10.90;27.95;98584.94;4942299;29;20039;-85
2022/04/05 06:06:31;;;;;;;4.78;2.67;;;;;;;11.41;27.30;98596.41;4956933;29;20050;-84
2022/04/05 06:08:58;;;;;;;3.38;2.53;;;;;;;10.75;27.41;98521.19;4956342;28;20027;-84
2022/04/05 06:11:25;;;;;;;4.88;2.75;;;;;;;10.79;27.57;98550.56;4958004;28;20039;-89
2022/04/05 06:13:52;;;;;;;4.53;2.70;;;;;;;10.24;27.57;98507.88;4969640;28;20103;-84
2022/04/05 06:16:35;;;;;;;5.07;2.75;;;;;;;9.98;28.07;98484.34;4950694;28;20054;-86
2022/04/05 06:19:03;;;;;;;5.28;2.78;;;;;;;10.68;28.19;98554.34;4962914;29;20419;-83
2022/04/05 06:21:29;;;;;;;5.28;2.63;;;;;;;11.50;27.25;98574.41;4938490;29;20419;-85
2022/04/05 06:23:59;;;;;;;4.55;2.67;;;;;;;11.22;27.14;98452.06;4956411;29;20047;-84
2022/04/05 06:26:43;;;;;;;4.00;2.80;;;;;;;13.33;26.43;98567.09;4926755;29;20043;-82
2022/04/05 06:29:09;;;;;;;4.75;2.55;;;;;;;13.64;25.54;98469.16;4961563;29;20043;-82
2022/04/05 06:31:36;;;;;;;7.13;2.90;;;;;;;14.88;24.80;98497.72;4959005;29;20215;-83
2022/04/05 06:34:03;;;;;;;5.47;2.63;;;;;;;15.97;23.72;98527.34;4959568;29;20480;-83
2022/04/05 06:36:29;;;;;;;6.10;3.22;;;;;;;16.48;23.17;98529.13;4958593;29;20086;-85
2022/04/05 06:38:58;;;;;;;4.53;2.95;;;;;;;15.16;23.34;98512.09;4954533;28;20110;-83
2022/04/05 06:41:24;;;;;;;3.78;2.70;;;;;;;14.01;23.32;98496.34;4945675;29;20050;-86
2022/04/05 06:43:50;;;;;;;4.93;2.95;;;;;;;13.98;24.15;98560.09;4943459;29;20039;-84
2022/04/05 06:46:18;;;;;;;4.93;2.80;;;;;;;14.01;23.80;98439.66;4940636;29;20513;-83
2022/04/05 06:48:45;;;;;;;4.55;2.70;;;;;;;13.99;23.72;98443.28;4940481;29;20047;-88
2022/04/05 06:51:26;;;;;;;7.05;2.90;;;;;;;16.00;23.33;98539.47;4947948;29;20482;-83
2022/04/05 06:54:05;;;;;;;5.15;2.70;;;;;;;16.54;22.10;98534.88;4944772;29;20046;-86
2022/04/05 06:56:36;;;;;;;3.72;2.63;;;;;;;15.39;22.77;98518.84;4942559;29;20062;-85
2022/04/05 06:59:23;;;;;;;5.32;2.90;;;;;;;14.53;22.70;98493.16;4958769;28;20039;-85
2022/04/05 07:01:53;;;;;;;5.28;2.78;;;;;;;13.59;23.64;98482.44;4945906;29;20170;-84
2022/04/05 07:04:22;;;;;;;5.35;3.20;;;;;;;13.81;23.95;98479.75;4939670;29;20051;-83
2022/04/05 07:06:50;;;;;;;4.03;2.72;;;;;;;13.48;24.15;98529.94;4956671;28;20051;-85
2022/04/05 07:12:47;;;;;;;4.65;2.80;;;;;;;13.43;24.47;98546.72;4932864;29;20074;-85
2022/04/05 07:15:14;;;;;;;4.40;2.80;;;;;;;12.88;23.93;98493.97;4951791;29;20106;-84
2022/04/05 07:17:41;;;;;;;5.78;2.97;;;;;;;13.33;24.10;98478.28;4950659;29;20130;-86
2022/04/05 07:20:17;;;;;;;3.83;3.10;;;;;;;13.44;24.34;98454.34;4955191;29;20043;-85
2022/04/05 07:22:50;;;;;;;5.40;3.25;;;;;;;13.57;24.48;98424.16;4947064;28;20130;-87
2022/04/05 07:25:24;;;;;;;4.78;3.00;;;;;;;15.24;23.75;98499.47;4952556;29;20042;-84
2022/04/05 07:28:02;;;;;;;3.75;2.55;;;;;;;15.28;22.97;98435.50;4936211;29;20069;-86
2022/04/05 07:30:31;;;;;;;5.80;3.30;;;;;;;16.09;22.88;98510.13;4950940;29;20077;-85
2022/04/05 07:33:03;;;;;;;3.20;2.88;;;;;;;16.42;22.22;98527.66;4934811;29;20048;-85
2022/04/05 07:35:35;;;;;;;;;;;;;;;16.81;21.65;98505.44;4914121;29;20479;-86
2022/04/05 07:38:05;;;;;;;4.65;3.13;;;;;;;15.67;21.96;98441.41;4932018;29;19930;-84
2022/04/05 07:40:47;;;;;;;5.80;3.33;;;;;;;16.01;22.19;98486.94;4933948;29;20043;-84
2022/04/05 07:43:18;;;;;;;5.10;2.90;;;;;;;15.24;21.51;98462.78;4937666;29;20035;-84
2022/04/05 07:45:49;;;;;;;6.78;3.15;;;;;;;14.55;22.06;98495.69;4946900;29;20438;-85
2022/04/05 07:48:21;;;;;;;4.72;3.05;;;;;;;13.88;22.88;98489.94;4935464;29;20085;-84
2022/04/05 07:50:50;;;;;;;3.53;2.85;;;;;;;13.26;22.43;98462.84;4921006;29;20069;-82
2022/04/05 07:53:16;;;;;;;5.03;3.33;;;;;;;14.28;23.47;98502.13;4934190;29;20522;-83
2022/04/05 07:55:43;;;;;;;4.60;3.33;;;;;;;14.78;22.45;98484.22;4935513;29;20070;-86
2022/04/05 07:58:15;;;;;;;6.25;3.28;;;;;;;14.90;22.67;98401.56;4954450;29;20067;-84
2022/04/05 08:00:41;;;;;;;6.10;2.85;;;;;;;16.07;22.05;98470.00;4956177;29;20097;-86
2022/04/05 08:03:08;;;;;;;4.65;3.20;;;;;;;16.42;21.74;98488.28;4943354;29;20063;-81
2022/04/05 08:05:35;;;;;;;5.53;3.30;;;;;;;15.89;21.65;98404.47;4927233;29;20077;-83
2022/04/05 08:08:01;;;;;;;4.00;3.03;;;;;;;16.44;20.39;98423.41;4970164;28;20043;-84
2022/04/05 08:10:30;;;;;;;3.25;2.88;;;;;;;17.36;20.91;98457.75;4944553;28;20051;-83
2022/04/05 08:12:56;;;;;;;9.25;5.07;;;;;;;18.55;20.29;98458.50;4957021;28;20122;-83
2022/04/05 08:15:23;;;;;;;4.72;3.17;;;;;;;20.28;19.07;98455.94;4934255;29;20067;-82
2022/04/05 08:17:57;;;;;;;6.10;2.95;;;;;;;20.84;17.51;98496.97;4934170;29;20065;-84
2022/04/05 08:20:27;;;;;;;3.50;3.20;;;;;;;20.90;17.87;98464.78;4932742;29;20053;-85
2022/04/05 08:22:59;;;;;;;4.97;3.10;;;;;;;21.26;17.50;98468.34;4939721;29;20035;-86
2022/04/05 08:25:28;;;;;;;5.15;2.97;;;;;;;21.43;17.17;98459.09;4932834;29;20595;-84
2022/04/05 08:27:54;;;;;;;5.25;3.00;;;;;;;21.64;17.30;98459.34;4937690;29;20070;-86
2022/04/05 08:30:21;;;;;;;3.95;2.88;;;;;;;22.65;16.20;98448.91;4938858;28;20051;-81
2022/04/05 08:32:52;;;;;;;4.28;2.88;;;;;;;23.14;16.31;98443.22;4942330;29;20035;-87
2022/04/05 08:35:20;;;;;;;2.95;2.65;;;;;;;23.15;15.71;98474.91;4950355;29;20055;-86
2022/04/05 08:37:48;;;;;;;3.60;2.65;;;;;;;22.04;16.09;98463.38;4970397;29;20098;-86
2022/04/05 08:40:17;;;;;;;4.57;3.00;;;;;;;21.46;16.26;98448.31;4953694;29;20039;-87
2022/04/05 08:42:46;;;;;;;4.25;2.78;;;;;;;20.70;16.22;98406.25;4934955;29;20480;-87
2022/04/05 08:45:14;;;;;;;4.13;2.88;;;;;;;22.20;15.83;98446.28;4958982;29;20049;-86
2022/04/05 08:47:46;;;;;;;3.75;3.28;;;;;;;23.29;15.50;98449.06;4939675;29;20931;-86
2022/04/05 08:50:15;;;;;;;3.20;2.72;;;;;;;23.12;14.89;98450.47;4943272;29;20047;-86
2022/04/05 08:52:44;;;;;;;4.90;3.08;;;;;;;22.97;15.35;98445.44;4950667;29;20085;-85
2022/04/05 08:55:11;;;;;;;4.47;3.10;;;;;;;22.82;15.15;98336.19;4919273;29;20348;-85
2022/04/05 08:57:37;;;;;;;3.30;2.80;;;;;;;22.33;14.74;98356.91;4946462;29;20035;-86
2022/04/05 09:00:07;;;;;;;3.88;2.88;;;;;;;21.80;15.03;98455.50;4933017;29;20360;-86
2022/04/05 09:02:33;;;;;;;3.67;3.20;;;;;;;21.06;15.77;98420.41;4935129;29;20219;-86
2022/04/05 09:04:59;;;;;;;4.65;3.20;;;;;;;21.32;15.59;98420.25;4934350;29;20058;-85
2022/04/05 09:07:30;;;;;;;4.03;2.63;;;;;;;22.44;15.54;98458.56;4937772;29;20055;-87
2022/04/05 09:10:16;;;;;;;3.75;3.00;;;;;;;21.62;15.47;98441.91;4931410;29;20043;-87
2022/04/05 09:12:46;;;;;;;7.30;2.90;;;;;;;21.58;15.29;98435.13;4944398;29;20059;-85
2022/04/05 09:15:15;;;;;;;3.55;2.63;;;;;;;21.25;15.36;98440.19;4954248;29;20457;-86
2022/04/05 09:17:44;;;;;;;4.90;2.70;;;;;;;20.66;15.19;98406.59;4923714;29;20099;-85
2022/04/05 09:20:12;;;;;;;4.00;2.53;;;;;;;20.62;15.06;98435.06;4947857;28;20031;-86
2022/04/05 09:22:38;;;;;;;3.95;2.60;;;;;;;20.29;15.61;98426.78;4965274;28;20047;-86
2022/04/05 09:25:07;;;;;;;3.60;2.67;;;;;;;19.66;16.08;98458.34;4950597;29;20051;-86
2022/04/05 09:28:09;;;;;;;3.58;3.00;;;;;;;19.09;16.00;98394.44;4947598;29;20074;-84
2022/04/05 09:30:37;;;;;;;4.15;2.50;;;;;;;18.71;16.02;98358.25;4944518;28;20786;-85
2022/04/05 09:33:04;;;;;;;3.20;2.53;;;;;;;18.66;15.96;98434.09;4932995;29;20044;-86
2022/04/05 09:35:41;;;;;;;3.03;2.47;;;;;;;17.86;16.56;98427.59;4933810;29;20047;-85
2022/04/05 09:38:11;;;;;;;3.45;2.50;;;;;;;18.01;16.96;98452.13;4933590;29;20106;-88
2022/04/05 09:40:38;;;;;;;4.22;2.40;;;;;;;17.55;17.13;98379.47;4933425;29;20051;-85
2022/04/05 09:43:07;;;;;;;3.15;2.60;;;;;;;16.99;17.44;98374.81;4938139;29;20183;-86
2022/04/05 09:45:52;;;;;;;2.33;2.13;;;;;;;17.32;17.48;98401.88;4941614;29;20043;-86
2022/04/05 09:48:29;;;;;;;4.93;2.53;;;;;;;17.23;17.15;98378.75;4963176;29;20043;-85
2022/04/05 09:50:59;;;;;;;3.92;2.22;;;;;;;17.04;17.63;98408.72;4972289;28;20091;-86
2022/04/05 09:53:54;;;;;;;3.58;2.50;;;;;;;16.64;17.76;98397.84;4952691;28;20099;-84
2022/04/05 09:56:22;;;;;;;3.80;2.53;;;;;;;15.89;17.95;98364.31;4918852;29;20146;-84
2022/04/05 09:58:50;;;;;;;3.20;2.60;;;;;;;15.78;18.26;98388.41;4935111;29;20043;-87
2022/04/05 10:01:18;;;;;;;3.75;2.33;;;;;;;15.68;18.59;98392.47;4932693;29;20039;-84
2022/04/05 10:04:05;;;;;;;3.63;2.28;;;;;;;15.05;18.80;98363.28;4925885;29;20067;-87
2022/04/05 10:06:33;;;;;;;5.13;2.40;;;;;;;15.27;18.65;98362.22;4947824;29;20074;-86
2022/04/05 10:09:01;;;;;;;2.58;2.30;;;;;;;15.58;18.75;98319.53;4946888;28;20043;-85
2022/04/05 10:11:33;;;;;;;3.47;2.20;;;;;;;16.81;18.60;98408.25;4930920;29;20063;-86
2022/04/05 10:13:59;;;;;;;4.60;2.60;;;;;;;17.13;18.08;98389.78;4937146;29;20166;-86
2022/04/05 10:16:28;;;;;;;5.63;2.70;;;;;;;16.38;18.37;98345.00;4934219;29;20097;-86
2022/04/05 10:18:59;;;;;;;2.85;2.10;;;;;;;15.84;18.11;98322.53;4917740;29;20395;-85
2022/04/05 10:21:28;;;;;;;4.05;2.20;;;;;;;15.58;18.51;98350.97;4932765;29;20088;-85
2022/04/05 10:23:56;;;;;;;3.58;2.20;;;;;;;15.65;18.52;98368.09;4948647;29;20042;-86
2022/04/05 10:26:29;;;;;;;2.83;2.00;;;;;;;15.81;18.75;98367.28;4940732;29;20613;-85
2022/04/05 10:28:58;;;;;;;2.78;2.20;;;;;;;15.31;18.96;98333.16;4938933;29;20058;-83
2022/04/05 10:31:52;;;;;;;3.42;2.10;;;;;;;15.09;18.17;98390.22;4946630;29;20119;-81
2022/04/05 10:34:34;;;;;;;4.85;2.17;;;;;;;13.45;19.05;98315.78;4956165;29;20050;-83
2022/04/05 10:37:18;;;;;;;4.40;2.40;;;;;;;13.06;20.17;98309.59;4945316;29;20035;-84
2022/04/05 10:40:10;;;;;;;2.92;2.22;;;;;;;13.28;20.16;98380.97;4941435;29;20051;-83
2022/04/05 10:42:41;;;;;;;3.75;2.33;;;;;;;13.10;20.42;98326.00;4947361;29;20043;-87
2022/04/05 10:45:11;;;;;;;3.50;2.67;;;;;;;13.43;20.14;98377.72;4961717;29;20070;-83
2022/04/05 10:48:18;;;;;;;3.45;2.40;;;;;;;12.39;20.64;98358.41;4948469;29;20122;-82
2022/04/05 10:51:00;;;;;;;3.67;2.25;;;;;;;12.16;21.46;98369.75;4944547;28;20051;-85
2022/04/05 10:53:38;;;;;;;4.18;2.22;;;;;;;12.19;21.15;98367.03;4937835;29;20122;-85
2022/04/05 10:56:08;;;;;;;3.60;2.20;;;;;;;12.18;21.46;98370.53;4948243;29;20047;-85
2022/04/05 10:58:35;;;;;;;4.47;2.67;;;;;;;11.90;21.52;98341.13;4939110;29;20051;-84
2022/04/05 11:01:18;;;;;;;3.35;2.53;;;;;;;11.87;21.53;98349.06;4930312;29;20663;-84
2022/04/05 11:04:14;;;;;;;4.15;2.58;;;;;;;11.74;22.48;98366.03;4950009;29;20071;-86
2022/04/05 11:07:02;;;;;;;7.60;2.70;;;;;;;11.83;22.64;98362.25;4916150;29;20075;-84
2022/04/05 11:09:32;;;;;;;4.25;2.45;;;;;;;11.00;22.37;98278.38;4937579;29;20047;-86
2022/04/05 11:12:05;;;;;;;4.18;2.60;;;;;;;11.14;22.50;98375.03;4948244;29;20118;-86
2022/04/05 11:14:41;;;;;;;3.17;2.20;;;;;;;10.84;22.96;98348.31;4935799;29;20452;-87
2022/04/05 11:17:13;;;;;;;4.97;2.70;;;;;;;10.53;23.33;98325.91;4927872;29;20047;-84
2022/04/05 11:19:42;;;;;;;4.18;2.67;;;;;;;10.72;23.38;98357.34;4935397;29;20047;-84
2022/04/05 11:22:21;;;;;;;4.43;2.40;;;;;;;10.50;23.61;98357.22;4934728;29;20145;-83
2022/04/05 11:25:08;;;;;;;3.20;2.58;;;;;;;9.98;23.96;98318.88;4934195;29;20141;-87
2022/04/05 11:27:46;;;;;;;3.95;2.80;;;;;;;9.78;24.11;98322.09;4925026;29;20074;-84
2022/04/05 11:30:21;;;;;;;4.03;2.90;;;;;;;9.74;24.93;98341.25;4946207;29;20050;-83
2022/04/05 11:33:06;;;;;;;3.28;2.47;;;;;;;9.50;24.78;98351.44;4937026;29;20071;-85
2022/04/05 11:35:52;;;;;;;3.20;2.67;;;;;;;9.03;25.11;98284.34;4918876;29;20050;-84
2022/04/05 11:38:19;;;;;;;3.40;2.38;;;;;;;9.23;24.92;98330.50;4941294;29;20035;-84
2022/04/05 11:41:00;;;;;;;4.35;2.70;;;;;;;9.25;25.10;98349.50;4935091;29;20518;-83
2022/04/05 11:43:30;;;;;;;3.58;2.60;;;;;;;8.46;25.29;98267.63;4973131;28;20066;-85
2022/04/05 11:46:03;;;;;;;4.63;2.65;;;;;;;7.86;26.19;98208.56;4938342;28;20085;-83
2022/04/05 11:48:30;;;;;;;5.43;2.83;;;;;;;8.34;26.54;98285.16;4919963;29;20047;-83
2022/04/05 11:50:59;;;;;;;2.80;2.20;;;;;;;8.30;26.19;98296.47;4934853;29;20050;-83
2022/04/05 11:53:28;;;;;;;7.60;2.70;;;;;;;8.16;26.62;98334.84;4928335;29;20054;-83